Time;durP1;ratioP1;P1;durP2;ratioP2;P2;SDS_P1;SDS_P2;PMS_P1;PMS_P2;Temp;Humidity;BMP_temperature;BMP_pressure;BME280_temperature;BME280_humidity;BME280_pressure;Samples;Min_cycle;Max_cycle;Signal;HPM_P1;HPM_P2
2024/02/12 00:00:21;;;;;;;13.63;5.93;;;;;;;8.78;100.00;98659.75;5170236;28;20031;-76
2024/02/12 00:02:52;;;;;;;16.15;6.00;;;;;;;8.81;100.00;98655.19;5166672;28;20398;-77
2024/02/12 00:05:23;;;;;;;14.48;6.50;;;;;;;8.80;100.00;98663.94;5166686;28;20081;-76
2024/02/12 00:07:53;;;;;;;12.25;6.18;;;;;;;8.90;100.00;98659.03;5165954;28;20037;-77
2024/02/12 00:10:23;;;;;;;12.00;6.43;;;;;;;8.84;100.00;98660.22;5168580;28;20022;-77
2024/02/12 00:12:54;;;;;;;15.70;6.78;;;;;;;8.84;100.00;98655.00;5166895;28;20030;-77
2024/02/12 00:15:24;;;;;;;10.65;6.18;;;;;;;8.83;100.00;98668.97;5167330;28;20030;-77
2024/02/12 00:17:57;;;;;;;12.65;6.38;;;;;;;8.81;100.00;98660.41;5167858;28;20093;-77
2024/02/12 00:20:29;;;;;;;16.60;7.82;;;;;;;8.79;100.00;98671.81;5167633;28;20511;-77
2024/02/12 00:23:00;;;;;;;13.45;7.20;;;;;;;8.77;100.00;98674.53;5164629;28;20488;-77
2024/02/12 00:25:30;;;;;;;20.35;7.18;;;;;;;8.79;100.00;98672.69;5186465;28;20037;-77
2024/02/12 00:28:00;;;;;;;15.18;6.50;;;;;;;8.80;100.00;98669.16;5174087;28;20145;-77
2024/02/12 00:30:32;;;;;;;10.23;5.93;;;;;;;8.95;100.00;98665.63;5170960;28;20021;-77
2024/02/12 00:33:09;;;;;;;10.35;5.20;;;;;;;8.93;100.00;98664.88;5171995;28;20054;-77
2024/02/12 00:35:41;;;;;;;13.77;5.18;;;;;;;8.88;100.00;98676.50;5169779;28;20048;-76
2024/02/12 00:38:11;;;;;;;13.95;5.97;;;;;;;8.83;100.00;98671.56;5163712;28;20038;-74
2024/02/12 00:40:42;;;;;;;13.93;5.65;;;;;;;8.86;100.00;98673.97;5178580;28;20550;-77
2024/02/12 00:43:12;;;;;;;16.48;5.70;;;;;;;8.81;100.00;98680.38;5169101;28;20511;-76
2024/02/12 00:45:42;;;;;;;12.45;5.45;;;;;;;8.78;100.00;98681.41;5170222;28;20037;-77
2024/02/12 00:48:12;;;;;;;12.57;5.45;;;;;;;8.76;100.00;98677.22;5171947;28;20053;-75
2024/02/12 00:50:44;;;;;;;11.98;5.13;;;;;;;8.79;100.00;98680.50;5171169;28;20499;-76
2024/02/12 00:53:15;;;;;;;15.65;6.68;;;;;;;8.77;100.00;98679.75;5187021;28;20026;-76
2024/02/12 00:55:46;;;;;;;13.30;5.95;;;;;;;8.80;100.00;98679.56;5173360;28;20010;-76
2024/02/12 00:58:16;;;;;;;12.02;6.22;;;;;;;8.84;100.00;98688.00;5162445;28;20045;-76
2024/02/12 01:00:47;;;;;;;14.25;6.82;;;;;;;8.77;100.00;98682.34;5172839;28;20483;-77
2024/02/12 01:03:17;;;;;;;12.45;6.53;;;;;;;8.75;100.00;98683.34;5171329;28;20040;-77
2024/02/12 01:05:48;;;;;;;10.45;5.60;;;;;;;8.78;100.00;98684.03;5173305;28;20783;-77
2024/02/12 01:08:18;;;;;;;11.35;5.85;;;;;;;8.85;100.00;98681.88;5167623;28;20137;-76
2024/02/12 01:10:50;;;;;;;15.40;5.45;;;;;;;8.87;100.00;98696.50;5170861;28;20059;-77
2024/02/12 01:13:21;;;;;;;11.85;5.32;;;;;;;8.84;100.00;98691.47;5185283;28;20116;-77
2024/02/12 01:15:51;;;;;;;12.57;5.07;;;;;;;8.88;100.00;98692.97;5168563;28;20022;-77
2024/02/12 01:18:22;;;;;;;10.88;5.05;;;;;;;8.85;100.00;98695.75;5168383;28;20032;-77
2024/02/12 01:20:52;;;;;;;11.65;5.32;;;;;;;8.90;100.00;98693.69;5166745;28;20042;-76
2024/02/12 01:23:22;;;;;;;11.95;5.20;;;;;;;8.88;100.00;98694.75;5165404;28;20029;-77
2024/02/12 01:25:53;;;;;;;9.52;4.90;;;;;;;8.84;100.00;98701.03;5170594;28;20443;-77
2024/02/12 01:28:23;;;;;;;18.20;7.93;;;;;;;8.85;100.00;98703.56;5160428;28;20029;-77
2024/02/12 01:30:53;;;;;;;13.95;8.70;;;;;;;8.82;100.00;98698.53;5168592;28;20030;-76
2024/02/12 01:33:25;;;;;;;12.35;7.22;;;;;;;8.94;100.00;98702.19;5170477;28;20081;-77
2024/02/12 01:35:55;;;;;;;14.90;7.15;;;;;;;8.89;100.00;98704.22;5171585;28;20025;-77
2024/02/12 01:38:26;;;;;;;10.57;5.55;;;;;;;8.87;100.00;98701.69;5174395;28;20536;-76
2024/02/12 01:40:57;;;;;;;11.25;4.95;;;;;;;8.82;100.00;98702.88;5166673;28;20026;-77
2024/02/12 01:43:31;;;;;;;9.07;4.80;;;;;;;8.80;100.00;98705.59;5172086;28;20037;-77
2024/02/12 01:46:07;;;;;;;14.10;5.30;;;;;;;8.81;100.00;98715.09;5169558;28;20029;-75
2024/02/12 01:48:38;;;;;;;10.10;4.68;;;;;;;8.76;100.00;98709.28;5172832;28;20042;-77
2024/02/12 01:51:09;;;;;;;13.02;5.38;;;;;;;8.83;100.00;98709.78;5168429;28;20036;-76
2024/02/12 01:53:46;;;;;;;10.07;4.88;;;;;;;8.84;100.00;98716.66;5175089;28;20075;-77
2024/02/12 01:56:16;;;;;;;10.30;4.60;;;;;;;8.82;100.00;98714.16;5171267;28;20030;-77
2024/02/12 01:58:47;;;;;;;11.20;4.38;;;;;;;8.89;100.00;98715.47;5171982;28;20034;-77
2024/02/12 02:01:18;;;;;;;8.57;4.53;;;;;;;8.85;100.00;98713.97;5158223;28;20117;-77
2024/02/12 02:03:48;;;;;;;9.77;4.25;;;;;;;8.82;100.00;98711.56;5170278;28;20030;-77
2024/02/12 02:06:19;;;;;;;8.95;5.15;;;;;;;8.79;100.00;98718.69;5184718;28;20032;-76
2024/02/12 02:08:50;;;;;;;12.93;6.60;;;;;;;8.81;100.00;98722.06;5151584;28;20061;-77
2024/02/12 02:11:20;;;;;;;15.02;7.22;;;;;;;8.77;100.00;98720.56;5168882;28;20501;-76
2024/02/12 02:13:52;;;;;;;15.20;5.05;;;;;;;8.77;100.00;98721.41;5169076;28;20023;-77
2024/02/12 02:16:22;;;;;;;7.75;4.63;;;;;;;8.82;100.00;98724.56;5172439;28;20036;-77
2024/02/12 02:18:53;;;;;;;8.13;3.95;;;;;;;8.84;100.00;98717.50;5168005;28;20121;-77
2024/02/12 02:21:23;;;;;;;12.15;3.85;;;;;;;8.78;100.00;98723.09;5172837;28;20443;-78
2024/02/12 02:24:02;;;;;;;9.55;4.03;;;;;;;8.73;100.00;98722.50;5179345;28;20037;-77
2024/02/12 02:26:34;;;;;;;7.90;3.90;;;;;;;8.78;100.00;98719.63;5158262;28;20045;-77
2024/02/12 02:29:04;;;;;;;6.15;3.35;;;;;;;8.73;100.00;98722.50;5168976;28;20023;-76
2024/02/12 02:31:35;;;;;;;9.35;3.40;;;;;;;8.69;100.00;98723.59;5161288;28;20030;-77
2024/02/12 02:34:05;;;;;;;7.65;3.50;;;;;;;8.74;100.00;98725.94;5169911;28;20500;-76
2024/02/12 02:36:35;;;;;;;8.52;3.67;;;;;;;8.65;100.00;98727.31;5167631;28;20088;-77
2024/02/12 02:39:06;;;;;;;8.50;3.85;;;;;;;8.69;100.00;98730.59;5187205;28;20042;-77
2024/02/12 02:41:36;;;;;;;8.65;3.30;;;;;;;8.69;100.00;98728.00;5158896;28;20033;-77
2024/02/12 02:44:07;;;;;;;7.72;3.67;;;;;;;8.64;100.00;98730.84;5185571;28;20045;-77
2024/02/12 02:46:38;;;;;;;8.02;3.70;;;;;;;8.70;100.00;98738.31;5165487;28;20533;-77
2024/02/12 02:49:08;;;;;;;11.95;3.45;;;;;;;8.66;100.00;98739.41;5164754;28;20038;-77
2024/02/12 02:51:38;;;;;;;7.97;4.30;;;;;;;8.67;100.00;98735.03;5169589;28;20018;-77
2024/02/12 02:54:09;;;;;;;9.75;5.93;;;;;;;8.67;100.00;98740.22;5162822;28;20232;-77
2024/02/12 02:56:40;;;;;;;12.52;6.10;;;;;;;8.66;100.00;98742.00;5157806;28;20042;-76
2024/02/12 02:59:10;;;;;;;9.57;5.05;;;;;;;8.63;100.00;98738.72;5166618;28;20037;-77
2024/02/12 03:01:41;;;;;;;8.90;4.68;;;;;;;8.68;100.00;98737.56;5182974;28;20033;-77
2024/02/12 03:04:14;;;;;;;6.95;3.97;;;;;;;8.70;100.00;98746.09;5167345;28;20053;-77
2024/02/12 03:06:44;;;;;;;7.32;4.05;;;;;;;8.65;100.00;98748.16;5184867;28;20116;-77
2024/02/12 03:09:15;;;;;;;10.95;4.55;;;;;;;8.65;100.00;98749.91;5168215;28;20508;-77
2024/02/12 03:11:51;;;;;;;10.32;4.90;;;;;;;8.58;100.00;98746.78;5178818;28;20148;-77
2024/02/12 03:14:24;;;;;;;8.75;4.28;;;;;;;8.61;100.00;98762.28;5180906;28;20052;-77
2024/02/12 03:16:55;;;;;;;9.38;4.35;;;;;;;8.77;100.00;98752.66;5166060;28;20033;-77
2024/02/12 03:19:26;;;;;;;14.15;7.07;;;;;;;8.68;100.00;98755.78;5169926;28;20479;-76
2024/02/12 03:21:56;;;;;;;14.20;7.18;;;;;;;8.67;100.00;98761.06;5168184;28;20038;-77
2024/02/12 03:24:28;;;;;;;11.43;6.65;;;;;;;8.77;100.00;98752.66;5170234;28;20558;-76
2024/02/12 03:27:00;;;;;;;10.05;4.43;;;;;;;8.78;100.00;98756.94;5169386;28;20030;-77
2024/02/12 03:29:32;;;;;;;10.05;5.72;;;;;;;8.73;100.00;98756.34;5167226;28;20096;-77
2024/02/12 03:32:05;;;;;;;14.00;5.43;;;;;;;8.72;100.00;98759.88;5170569;28;20042;-77
2024/02/12 03:34:36;;;;;;;11.85;4.93;;;;;;;8.77;100.00;98764.84;5170852;28;20034;-77
2024/02/12 03:37:06;;;;;;;10.27;4.72;;;;;;;8.76;100.00;98760.56;5170703;28;20084;-77
2024/02/12 03:39:36;;;;;;;9.02;4.15;;;;;;;8.78;100.00;98764.75;5171425;28;20041;-77
2024/02/12 03:42:09;;;;;;;9.85;3.20;;;;;;;8.75;100.00;98759.69;5160589;28;20302;-77
2024/02/12 03:44:42;;;;;;;7.68;3.50;;;;;;;8.77;100.00;98763.09;5167615;28;20515;-77
2024/02/12 03:47:12;;;;;;;9.13;3.60;;;;;;;8.77;100.00;98767.44;5169042;28;20045;-77
2024/02/12 04:01:00;;;;;;;7.70;3.55;;;;;;;8.67;100.00;98768.88;5167917;28;20034;-77
2024/02/12 04:03:30;;;;;;;9.93;4.40;;;;;;;8.66;100.00;98775.00;5165818;28;20029;-76
2024/02/12 04:06:04;;;;;;;10.95;4.15;;;;;;;8.68;100.00;98774.00;5174123;28;20497;-77
2024/02/12 04:08:35;;;;;;;8.88;4.45;;;;;;;8.66;100.00;98781.06;5168116;28;20628;-77
2024/02/12 04:11:08;;;;;;;9.85;4.32;;;;;;;8.68;100.00;98778.34;5174214;28;20324;-77
2024/02/12 04:13:38;;;;;;;8.35;4.63;;;;;;;8.68;100.00;98783.56;5165420;28;20054;-77
2024/02/12 04:16:12;;;;;;;11.80;4.88;;;;;;;8.68;100.00;98793.97;5166648;28;20078;-77
2024/02/12 04:18:42;;;;;;;10.18;4.38;;;;;;;8.69;100.00;98790.47;5164428;28;20029;-76
2024/02/12 04:21:16;;;;;;;11.13;3.90;;;;;;;8.66;100.00;98796.69;5173059;28;20024;-77
2024/02/12 04:23:49;;;;;;;10.68;3.85;;;;;;;8.71;100.00;98801.66;5170541;28;20134;-77
2024/02/12 04:26:21;;;;;;;8.45;3.78;;;;;;;8.71;100.00;98793.84;5170155;28;20136;-76
2024/02/12 04:28:53;;;;;;;8.75;3.83;;;;;;;8.75;100.00;98798.75;5161529;28;20030;-77
2024/02/12 04:31:25;;;;;;;7.15;3.70;;;;;;;8.76;100.00;98802.22;5171060;28;20557;-77
2024/02/12 04:33:55;;;;;;;7.82;3.88;;;;;;;8.79;100.00;98808.09;5168015;28;20065;-77
2024/02/12 04:36:26;;;;;;;6.80;3.90;;;;;;;8.81;100.00;98811.44;5174094;28;20035;-77
2024/02/12 04:38:56;;;;;;;8.50;4.25;;;;;;;8.89;100.00;98809.25;5167105;28;20044;-77
2024/02/12 04:41:26;;;;;;;9.68;4.70;;;;;;;8.82;100.00;98820.09;5160329;28;20497;-77
2024/02/12 04:43:57;;;;;;;9.77;4.68;;;;;;;8.76;100.00;98823.88;5184739;28;20177;-77
2024/02/12 04:46:28;;;;;;;8.88;4.50;;;;;;;8.81;100.00;98826.22;5173393;28;20069;-77
2024/02/12 04:49:00;;;;;;;10.43;4.38;;;;;;;8.83;100.00;98829.56;5167993;28;20049;-77
2024/02/12 04:51:32;;;;;;;13.68;4.85;;;;;;;8.85;100.00;98827.72;5169337;28;20470;-77
2024/02/12 04:54:02;;;;;;;10.38;4.90;;;;;;;8.90;100.00;98826.53;5162117;28;20376;-77
2024/02/12 04:56:33;;;;;;;10.15;5.20;;;;;;;8.81;100.00;98841.84;5166577;28;20574;-77
2024/02/12 04:59:10;;;;;;;10.93;5.22;;;;;;;8.88;100.00;98836.22;5170397;28;20018;-77
2024/02/12 05:01:41;;;;;;;10.48;4.90;;;;;;;8.83;100.00;98851.28;5162315;28;20026;-77
2024/02/12 05:04:11;;;;;;;12.65;5.20;;;;;;;8.88;100.00;98849.25;5166827;28;20510;-77
2024/02/12 05:06:41;;;;;;;12.25;4.80;;;;;;;8.82;100.00;98854.81;5169708;28;20128;-77
2024/02/12 05:09:12;;;;;;;15.68;5.07;;;;;;;8.79;100.00;98849.78;5170769;28;20124;-77
2024/02/12 05:11:43;;;;;;;9.40;5.10;;;;;;;8.89;100.00;98856.13;5161406;28;20133;-77
2024/02/12 05:14:13;;;;;;;13.50;5.55;;;;;;;8.89;100.00;98861.34;5167280;28;20109;-77
2024/02/12 05:16:45;;;;;;;12.77;4.95;;;;;;;8.92;100.00;98860.34;5171564;28;20026;-77
2024/02/12 05:24:54;;;;;;;9.15;5.22;;;;;;;8.97;100.00;98864.38;5157928;28;20451;-77
2024/02/12 05:27:25;;;;;;;12.15;5.90;;;;;;;8.95;100.00;98861.00;5164656;28;20049;-76
2024/02/12 05:29:58;;;;;;;10.35;6.07;;;;;;;8.88;100.00;98864.88;5174638;28;20026;-77
2024/02/12 05:32:29;;;;;;;12.52;6.18;;;;;;;8.91;100.00;98859.47;5169297;28;20034;-77
2024/02/12 05:34:59;;;;;;;11.65;6.55;;;;;;;8.92;100.00;98860.34;5167245;28;20228;-77
2024/02/12 05:37:30;;;;;;;12.23;6.72;;;;;;;8.87;100.00;98868.41;5165707;28;20034;-77
2024/02/12 05:40:00;;;;;;;12.02;6.50;;;;;;;8.93;100.00;98873.25;5171187;28;20021;-75
2024/02/12 05:42:31;;;;;;;10.93;5.88;;;;;;;9.00;100.00;98878.97;5162372;28;20058;-77
2024/02/12 05:45:01;;;;;;;14.90;6.65;;;;;;;8.93;100.00;98878.47;5169257;28;20023;-76
2024/02/12 05:47:31;;;;;;;15.50;7.05;;;;;;;8.97;100.00;98889.56;5166644;28;20117;-77
2024/02/12 05:50:02;;;;;;;12.38;6.63;;;;;;;9.04;100.00;98891.75;5168389;28;20416;-76
2024/02/12 05:52:33;;;;;;;11.05;6.85;;;;;;;8.92;100.00;98892.41;5166828;28;20515;-77
2024/02/12 05:55:05;;;;;;;11.23;6.38;;;;;;;8.96;100.00;98898.31;5154653;28;20032;-77
2024/02/12 05:57:36;;;;;;;13.15;6.80;;;;;;;8.96;100.00;98904.38;5180278;28;20029;-77
2024/02/12 06:00:07;;;;;;;12.45;6.68;;;;;;;8.88;100.00;98905.72;5164637;28;20084;-77
2024/02/12 06:02:37;;;;;;;13.38;7.13;;;;;;;8.85;100.00;98903.25;5168543;28;20137;-77
2024/02/12 06:05:07;;;;;;;15.00;7.53;;;;;;;8.97;100.00;98916.47;5164930;28;20026;-78
2024/02/12 06:07:40;;;;;;;16.38;8.07;;;;;;;8.89;100.00;98913.44;5189248;28;20049;-77
2024/02/12 06:10:10;;;;;;;15.15;7.80;;;;;;;8.90;100.00;98909.06;5161756;28;20041;-77
2024/02/12 06:12:41;;;;;;;13.27;8.10;;;;;;;8.87;100.00;98909.25;5164145;28;20030;-75
2024/02/12 06:15:11;;;;;;;13.73;7.93;;;;;;;8.83;100.00;98908.56;5167516;28;20115;-77
2024/02/12 06:17:42;;;;;;;14.70;8.23;;;;;;;8.88;100.00;98910.94;5169549;28;20037;-76
2024/02/12 06:20:12;;;;;;;15.93;8.65;;;;;;;8.85;100.00;98919.75;5171769;28;20021;-77
2024/02/12 06:22:43;;;;;;;15.50;8.48;;;;;;;8.85;100.00;98922.34;5172816;28;20053;-75
2024/02/12 06:25:13;;;;;;;13.10;7.78;;;;;;;8.95;100.00;98933.94;5170186;28;20172;-77
2024/02/12 06:27:44;;;;;;;14.80;7.93;;;;;;;8.97;100.00;98926.88;5173015;28;20068;-76
2024/02/12 06:30:14;;;;;;;14.70;8.18;;;;;;;8.98;100.00;98938.13;5170902;28;20349;-77
2024/02/12 06:32:46;;;;;;;15.95;8.48;;;;;;;8.89;100.00;98943.84;5172000;28;20033;-77
2024/02/12 06:35:17;;;;;;;16.73;7.95;;;;;;;9.03;100.00;98942.16;5170694;28;20415;-77
2024/02/12 06:37:47;;;;;;;17.70;8.57;;;;;;;8.94;100.00;98947.03;5164453;28;20104;-77
2024/02/12 06:40:20;;;;;;;16.25;9.25;;;;;;;8.82;100.00;98958.97;5180521;28;20595;-77
2024/02/12 06:42:51;;;;;;;19.80;8.27;;;;;;;8.82;100.00;98952.91;5173786;28;20026;-77
2024/02/12 06:45:21;;;;;;;15.88;8.55;;;;;;;8.92;100.00;98965.34;5172883;28;20029;-76
2024/02/12 06:47:51;;;;;;;16.83;8.65;;;;;;;8.91;100.00;98958.47;5168491;28;20022;-77
2024/02/12 06:50:23;;;;;;;16.90;8.45;;;;;;;8.84;100.00;98969.28;5168553;28;20308;-76
2024/02/12 06:52:53;;;;;;;16.23;9.13;;;;;;;8.89;100.00;98970.72;5166554;28;20663;-77
2024/02/12 06:55:23;;;;;;;15.60;8.80;;;;;;;8.85;100.00;98977.03;5175492;28;20032;-77
2024/02/12 06:57:54;;;;;;;15.63;8.70;;;;;;;8.81;100.00;98985.09;5176063;28;20045;-77
2024/02/12 07:00:24;;;;;;;15.32;9.52;;;;;;;8.76;100.00;98987.13;5164047;28;20072;-76
2024/02/12 07:02:55;;;;;;;19.55;9.50;;;;;;;8.93;100.00;98992.25;5164394;28;20025;-76
2024/02/12 07:05:26;;;;;;;16.45;8.77;;;;;;;8.81;100.00;98998.13;5159862;28;20022;-77
2024/02/12 07:07:57;;;;;;;18.80;9.65;;;;;;;8.86;100.00;98996.94;5159611;28;20490;-77
2024/02/12 07:10:27;;;;;;;14.55;8.73;;;;;;;8.86;100.00;99002.16;5153535;28;20033;-77
2024/02/12 07:12:58;;;;;;;17.85;9.30;;;;;;;8.81;100.00;99004.19;5165654;28;20463;-76
2024/02/12 07:15:28;;;;;;;19.88;9.32;;;;;;;8.83;100.00;99004.06;5165660;28;20049;-77
2024/02/12 07:17:58;;;;;;;17.17;9.00;;;;;;;8.90;100.00;99013.25;5164631;28;20118;-77
2024/02/12 07:20:29;;;;;;;16.20;8.48;;;;;;;8.96;100.00;99010.31;5168477;28;20031;-77
2024/02/12 07:22:59;;;;;;;14.18;8.52;;;;;;;9.02;100.00;99017.78;5166634;28;20042;-77
2024/02/12 07:25:30;;;;;;;14.85;9.43;;;;;;;8.87;100.00;99019.47;5167430;28;20472;-77
2024/02/12 07:28:01;;;;;;;16.75;8.40;;;;;;;8.99;100.00;99018.81;5166659;28;20038;-77
2024/02/12 07:30:31;;;;;;;19.20;11.57;;;;;;;8.88;100.00;99026.34;5171284;28;20033;-75
2024/02/12 07:33:03;;;;;;;18.30;9.82;;;;;;;8.82;100.00;99026.69;5171916;28;20041;-77
2024/02/12 07:35:34;;;;;;;14.63;8.88;;;;;;;8.79;100.00;99031.22;5169295;28;20583;-77
2024/02/12 07:38:05;;;;;;;16.92;8.98;;;;;;;8.87;100.00;99029.06;5164427;28;20041;-77
2024/02/12 07:40:37;;;;;;;18.83;9.70;;;;;;;8.96;100.00;99034.63;5166942;28;20455;-77
2024/02/12 07:43:07;;;;;;;16.38;9.55;;;;;;;9.11;100.00;99033.81;5166319;28;20041;-77
2024/02/12 07:45:38;;;;;;;18.25;9.45;;;;;;;9.00;100.00;99033.53;5161618;28;20030;-77
2024/02/12 07:48:08;;;;;;;16.88;9.18;;;;;;;9.03;100.00;99041.16;5167141;28;20406;-77
2024/02/12 07:50:39;;;;;;;18.45;9.52;;;;;;;9.07;100.00;99047.91;5169406;28;20041;-75
2024/02/12 07:53:09;;;;;;;16.17;9.45;;;;;;;8.99;100.00;99049.22;5165025;28;20041;-77
2024/02/12 07:55:39;;;;;;;19.75;10.07;;;;;;;9.01;100.00;99058.66;5168659;28;20419;-77
2024/02/12 07:58:10;;;;;;;17.80;9.65;;;;;;;9.10;100.00;99054.72;5183881;28;20324;-77
2024/02/12 08:00:41;;;;;;;19.20;10.68;;;;;;;9.05;100.00;99065.38;5170283;28;20036;-77
2024/02/12 08:03:11;;;;;;;18.65;10.50;;;;;;;9.07;100.00;99060.91;5170436;28;20026;-77
2024/02/12 08:05:41;;;;;;;17.27;10.30;;;;;;;9.20;100.00;99074.97;5187991;28;20018;-77
2024/02/12 08:08:13;;;;;;;17.88;10.18;;;;;;;9.20;100.00;99086.25;5169612;28;20230;-77
2024/02/12 08:10:43;;;;;;;17.70;10.30;;;;;;;9.25;100.00;99084.25;5179647;28;20026;-77
2024/02/12 08:13:13;;;;;;;18.50;10.25;;;;;;;9.29;100.00;99085.75;5173540;28;20064;-77
2024/02/12 08:15:44;;;;;;;22.88;10.52;;;;;;;9.24;100.00;99090.38;5163849;28;20403;-77
2024/02/12 08:18:14;;;;;;;18.42;9.55;;;;;;;9.38;100.00;99103.53;5169393;28;20034;-77
2024/02/12 08:20:45;;;;;;;20.98;10.65;;;;;;;9.26;100.00;99098.09;5168868;28;20026;-77
2024/02/12 08:23:16;;;;;;;19.60;10.52;;;;;;;9.36;100.00;99101.91;5186822;28;20034;-77
2024/02/12 08:25:46;;;;;;;21.52;11.20;;;;;;;9.36;100.00;99105.38;5175410;28;20050;-77
2024/02/12 08:28:16;;;;;;;19.30;10.65;;;;;;;9.23;100.00;99106.09;5172621;28;20042;-77
2024/02/12 08:30:47;;;;;;;19.23;10.52;;;;;;;9.35;100.00;99118.47;5185071;28;20261;-77
2024/02/12 08:33:17;;;;;;;20.15;11.77;;;;;;;9.23;100.00;99116.50;5170902;28;20037;-77
2024/02/12 08:35:48;;;;;;;22.58;10.90;;;;;;;9.20;100.00;99122.75;5168864;28;20037;-77
2024/02/12 08:38:18;;;;;;;21.08;11.38;;;;;;;9.24;100.00;99124.25;5169120;28;20026;-77
2024/02/12 08:40:50;;;;;;;23.48;11.75;;;;;;;9.32;100.00;99127.28;5172979;28;20034;-77
2024/02/12 08:43:20;;;;;;;26.75;11.48;;;;;;;9.31;100.00;99124.78;5171769;28;20573;-77
2024/02/12 08:45:50;;;;;;;21.42;12.05;;;;;;;9.36;100.00;99135.78;5171526;28;20218;-76
2024/02/12 08:48:21;;;;;;;24.73;12.20;;;;;;;9.34;100.00;99128.03;5169558;28;20499;-77
2024/02/12 08:50:51;;;;;;;26.25;12.32;;;;;;;9.28;100.00;99137.97;5168953;28;20033;-76
2024/02/12 08:53:22;;;;;;;23.45;12.70;;;;;;;9.33;100.00;99128.16;5170591;28;20452;-77
2024/02/12 08:55:52;;;;;;;25.73;12.15;;;;;;;9.31;100.00;99137.81;5171871;28;20041;-77
2024/02/12 08:58:22;;;;;;;24.88;13.10;;;;;;;9.25;100.00;99156.38;5178131;28;20534;-75
2024/02/12 09:00:53;;;;;;;22.45;12.43;;;;;;;9.29;100.00;99153.53;5169607;28;20030;-76
2024/02/12 09:03:23;;;;;;;22.83;12.15;;;;;;;9.51;100.00;99158.44;5172790;28;20480;-76
2024/02/12 09:05:53;;;;;;;25.27;12.68;;;;;;;10.47;100.00;99152.97;5170539;28;20026;-77
2024/02/12 09:08:23;;;;;;;23.83;12.85;;;;;;;10.86;100.00;99153.28;5168886;28;20038;-77
2024/02/12 09:10:54;;;;;;;23.60;12.68;;;;;;;11.08;100.00;99162.38;5174788;28;20073;-77
2024/02/12 09:13:25;;;;;;;23.95;12.27;;;;;;;11.23;100.00;99157.06;5172827;28;20034;-77
2024/02/12 09:15:57;;;;;;;21.27;11.75;;;;;;;11.07;100.00;99158.91;5168250;28;20026;-77
2024/02/12 09:18:27;;;;;;;20.60;11.48;;;;;;;10.66;100.00;99167.50;5167872;28;20066;-77
2024/02/12 09:21:00;;;;;;;24.67;11.73;;;;;;;10.78;100.00;99171.19;5164949;28;20131;-75
2024/02/12 09:23:30;;;;;;;23.38;11.65;;;;;;;10.58;100.00;99169.75;5167996;28;20038;-77
2024/02/12 09:26:01;;;;;;;21.70;11.18;;;;;;;10.60;100.00;99162.66;5171514;28;20037;-77
2024/02/12 09:28:35;;;;;;;23.23;11.13;;;;;;;10.52;100.00;99166.66;5165255;28;20109;-77
2024/02/12 09:31:05;;;;;;;20.58;11.23;;;;;;;10.60;100.00;99183.56;5171010;28;20084;-77
2024/02/12 09:33:35;;;;;;;21.50;10.75;;;;;;;11.12;100.00;99180.38;5170248;28;20113;-77
2024/02/12 09:36:06;;;;;;;19.08;10.63;;;;;;;11.29;98.21;99188.06;5184542;28;20045;-77
2024/02/12 09:38:37;;;;;;;18.25;9.43;;;;;;;11.59;96.83;99180.16;5170010;28;20029;-77
2024/02/12 09:41:09;;;;;;;16.00;8.77;;;;;;;11.61;94.32;99184.34;5171394;28;20399;-77
2024/02/12 09:43:43;;;;;;;18.35;9.57;;;;;;;11.83;93.64;99182.09;5176354;28;20065;-77
2024/02/12 09:46:14;;;;;;;17.08;9.90;;;;;;;11.87;93.27;99191.44;5167626;28;20097;-77
2024/02/12 09:48:44;;;;;;;19.63;10.02;;;;;;;11.75;93.87;99197.44;5171510;28;20510;-76
2024/02/12 09:51:17;;;;;;;15.32;9.35;;;;;;;11.71;93.16;99195.94;5171411;28;20116;-77
2024/02/12 09:53:51;;;;;;;20.23;10.27;;;;;;;11.35;94.99;99192.94;5172162;28;20061;-76
2024/02/12 09:56:22;;;;;;;18.00;9.95;;;;;;;11.33;96.83;99205.25;5167157;28;20038;-76
2024/02/12 09:58:54;;;;;;;17.38;10.05;;;;;;;11.27;96.27;99203.00;5173448;28;20029;-77
2024/02/12 10:01:24;;;;;;;17.15;9.23;;;;;;;11.20;96.32;99206.06;5168602;28;20030;-76
2024/02/12 10:03:56;;;;;;;16.88;9.80;;;;;;;11.10;96.42;99213.63;5166869;28;20072;-76
2024/02/12 10:06:26;;;;;;;16.30;9.60;;;;;;;10.69;97.42;99221.38;5172982;28;20038;-77
2024/02/12 10:09:08;;;;;;;17.38;9.98;;;;;;;10.70;99.18;99230.91;5168113;28;20029;-77
2024/02/12 10:11:39;;;;;;;23.08;11.02;;;;;;;10.78;99.39;99226.06;5167331;28;20026;-77
2024/02/12 10:14:11;;;;;;;18.48;9.73;;;;;;;10.60;100.00;99224.50;5166517;28;20037;-77
2024/02/12 10:16:43;;;;;;;18.73;10.60;;;;;;;10.55;100.00;99231.75;5165078;28;20376;-76
2024/02/12 10:19:14;;;;;;;19.38;10.18;;;;;;;10.65;100.00;99235.56;5165551;28;20087;-77
2024/02/12 10:21:44;;;;;;;18.77;10.45;;;;;;;10.62;100.00;99233.09;5166563;28;20026;-77
2024/02/12 10:24:17;;;;;;;19.13;10.02;;;;;;;10.56;100.00;99243.91;5167066;28;20092;-77
2024/02/12 10:26:49;;;;;;;19.10;10.13;;;;;;;10.53;100.00;99244.06;5167608;28;20034;-77
2024/02/12 10:29:19;;;;;;;19.85;9.52;;;;;;;10.59;100.00;99246.31;5174662;28;20080;-76
2024/02/12 10:31:50;;;;;;;20.75;9.68;;;;;;;10.43;100.00;99259.41;5165438;28;20034;-77
2024/02/12 10:34:24;;;;;;;18.67;9.57;;;;;;;10.50;100.00;99259.94;5167727;28;20065;-77
2024/02/12 10:36:57;;;;;;;16.27;9.98;;;;;;;10.34;100.00;99256.47;5166426;28;20495;-76
2024/02/12 10:39:30;;;;;;;17.25;9.75;;;;;;;10.33;100.00;99260.03;5179801;28;20270;-76
2024/02/12 10:42:06;;;;;;;17.23;9.50;;;;;;;10.65;100.00;99251.22;5185891;28;20030;-77
2024/02/12 10:44:38;;;;;;;20.35;9.27;;;;;;;10.53;100.00;99251.91;5161878;28;20536;-76
2024/02/12 10:47:09;;;;;;;19.23;10.20;;;;;;;10.69;100.00;99253.56;5182475;28;20033;-76
2024/02/12 10:49:40;;;;;;;19.70;11.15;;;;;;;10.73;100.00;99260.31;5171373;28;20530;-76
2024/02/12 10:52:14;;;;;;;20.13;9.93;;;;;;;10.67;99.73;99262.44;5170489;28;20041;-77
2024/02/12 10:54:46;;;;;;;21.50;11.35;;;;;;;10.69;100.00;99260.56;5166677;28;20121;-77
2024/02/12 10:57:16;;;;;;;19.35;10.20;;;;;;;10.64;100.00;99270.41;5166712;28;20034;-76
2024/02/12 10:59:58;;;;;;;18.20;10.57;;;;;;;10.52;100.00;99271.94;5166522;28;20033;-77
2024/02/12 11:02:39;;;;;;;20.83;10.30;;;;;;;10.45;100.00;99273.22;5161184;28;20400;-77
2024/02/12 11:05:13;;;;;;;22.48;12.23;;;;;;;10.54;100.00;99272.69;5165908;28;20025;-77
2024/02/12 11:07:44;;;;;;;20.52;11.10;;;;;;;10.61;100.00;99278.44;5164901;28;20415;-76
2024/02/12 11:10:22;;;;;;;18.58;10.57;;;;;;;10.68;100.00;99275.38;5171630;28;20045;-76
2024/02/12 11:12:53;;;;;;;17.88;9.75;;;;;;;10.79;100.00;99278.25;5169804;28;20033;-77
2024/02/12 11:15:27;;;;;;;21.27;10.50;;;;;;;10.90;100.00;99272.41;5170849;28;20649;-76
2024/02/12 11:17:58;;;;;;;16.15;9.57;;;;;;;11.02;99.37;99281.22;5164451;28;20108;-77
2024/02/12 11:20:28;;;;;;;17.50;10.48;;;;;;;11.23;97.29;99279.97;5171175;28;20432;-77
2024/02/12 11:23:05;;;;;;;13.88;8.35;;;;;;;11.18;95.89;99279.41;5168686;28;20034;-77
2024/02/12 11:25:36;;;;;;;14.68;8.38;;;;;;;11.03;95.58;99285.50;5168480;28;20035;-77
2024/02/12 11:28:14;;;;;;;14.30;7.10;;;;;;;10.95;95.16;99281.66;5166204;28;20534;-77
2024/02/12 11:30:48;;;;;;;13.15;7.45;;;;;;;11.10;94.67;99281.59;5167679;28;20041;-76
2024/02/12 11:33:18;;;;;;;13.13;7.07;;;;;;;10.99;93.74;99283.16;5169115;28;20149;-77
2024/02/12 11:35:49;;;;;;;12.90;7.38;;;;;;;11.20;93.64;99287.13;5175642;28;20030;-76
2024/02/12 11:38:19;;;;;;;11.43;6.95;;;;;;;11.22;93.64;99295.72;5172403;28;20608;-77
2024/02/12 11:40:59;;;;;;;12.35;6.55;;;;;;;11.06;93.71;99295.78;5173762;28;20087;-76
2024/02/12 11:43:32;;;;;;;10.90;5.97;;;;;;;11.11;92.09;99298.16;5167247;28;20034;-76
2024/02/12 11:46:02;;;;;;;12.15;6.40;;;;;;;11.04;92.52;99302.03;5169139;28;20025;-77
2024/02/12 11:48:32;;;;;;;17.35;6.32;;;;;;;10.92;94.23;99299.28;5167804;28;20026;-77
2024/02/12 11:51:03;;;;;;;11.05;5.90;;;;;;;10.81;94.97;99309.50;5172066;28;20033;-77
2024/02/12 11:53:40;;;;;;;11.30;5.97;;;;;;;10.77;94.02;99311.47;5169728;28;20088;-76
2024/02/12 11:56:11;;;;;;;14.70;7.22;;;;;;;10.89;94.35;99302.06;5176423;28;20038;-77
2024/02/12 11:58:41;;;;;;;11.30;6.22;;;;;;;10.76;94.11;99303.69;5171106;28;20455;-76